sensor_id;sensor_type;location;lat;lon;timestamp;P1;durP1;ratioP1;P2;durP2;ratioP2
20093;SDS011;10206;48.012;10.030;2023-07-13T00:01:51;10.65;;;7.40;;
20093;SDS011;10206;48.012;10.030;2023-07-13T00:04:17;9.02;;;7.57;;
20093;SDS011;10206;48.012;10.030;2023-07-13T00:06:45;11.10;;;7.85;;
20093;SDS011;10206;48.012;10.030;2023-07-13T00:09:12;10.23;;;8.27;;
20093;SDS011;10206;48.012;10.030;2023-07-13T00:11:40;9.88;;;8.10;;
20093;SDS011;10206;48.012;10.030;2023-07-13T00:14:07;9.70;;;7.25;;
20093;SDS011;10206;48.012;10.030;2023-07-13T00:16:34;13.32;;;8.82;;
20093;SDS011;10206;48.012;10.030;2023-07-13T00:19:01;11.60;;;8.75;;
20093;SDS011;10206;48.012;10.030;2023-07-13T00:21:28;12.00;;;8.70;;
20093;SDS011;10206;48.012;10.030;2023-07-13T00:23:54;11.68;;;9.23;;
20093;SDS011;10206;48.012;10.030;2023-07-13T00:26:20;13.43;;;9.43;;
20093;SDS011;10206;48.012;10.030;2023-07-13T00:28:46;14.63;;;9.70;;
20093;SDS011;10206;48.012;10.030;2023-07-13T00:31:13;12.48;;;9.00;;
20093;SDS011;10206;48.012;10.030;2023-07-13T00:33:40;13.38;;;8.95;;
20093;SDS011;10206;48.012;10.030;2023-07-13T00:36:07;14.02;;;9.70;;
20093;SDS011;10206;48.012;10.030;2023-07-13T00:38:35;13.73;;;10.18;;
20093;SDS011;10206;48.012;10.030;2023-07-13T00:41:01;11.65;;;9.18;;
20093;SDS011;10206;48.012;10.030;2023-07-13T00:43:29;13.38;;;9.43;;
20093;SDS011;10206;48.012;10.030;2023-07-13T00:48:36;13.90;;;9.60;;
20093;SDS011;10206;48.012;10.030;2023-07-13T00:51:04;10.77;;;9.20;;
20093;SDS011;10206;48.012;10.030;2023-07-13T00:53:30;13.27;;;9.73;;
20093;SDS011;10206;48.012;10.030;2023-07-13T00:55:59;12.15;;;9.48;;
20093;SDS011;10206;48.012;10.030;2023-07-13T00:58:25;13.23;;;8.60;;
20093;SDS011;10206;48.012;10.030;2023-07-13T01:00:53;9.70;;;8.18;;
20093;SDS011;10206;48.012;10.030;2023-07-13T01:03:19;10.10;;;8.07;;
20093;SDS011;10206;48.012;10.030;2023-07-13T01:05:46;12.48;;;7.32;;
20093;SDS011;10206;48.012;10.030;2023-07-13T01:08:15;9.30;;;7.18;;
20093;SDS011;10206;48.012;10.030;2023-07-13T01:10:50;9.05;;;7.78;;
20093;SDS011;10206;48.012;10.030;2023-07-13T01:13:20;7.93;;;6.75;;
20093;SDS011;10206;48.012;10.030;2023-07-13T01:15:47;8.07;;;7.20;;
20093;SDS011;10206;48.012;10.030;2023-07-13T01:18:16;8.98;;;6.78;;
20093;SDS011;10206;48.012;10.030;2023-07-13T01:20:55;10.15;;;6.70;;
20093;SDS011;10206;48.012;10.030;2023-07-13T01:23:27;11.50;;;6.68;;
20093;SDS011;10206;48.012;10.030;2023-07-13T01:25:54;9.98;;;7.28;;
20093;SDS011;10206;48.012;10.030;2023-07-13T01:28:21;10.27;;;6.38;;
20093;SDS011;10206;48.012;10.030;2023-07-13T01:30:51;8.13;;;6.55;;
20093;SDS011;10206;48.012;10.030;2023-07-13T01:33:18;7.50;;;6.53;;
20093;SDS011;10206;48.012;10.030;2023-07-13T01:35:45;10.23;;;5.97;;
20093;SDS011;10206;48.012;10.030;2023-07-13T01:38:14;9.60;;;6.30;;
20093;SDS011;10206;48.012;10.030;2023-07-13T01:40:42;7.07;;;6.05;;
20093;SDS011;10206;48.012;10.030;2023-07-13T01:43:08;11.48;;;6.45;;
20093;SDS011;10206;48.012;10.030;2023-07-13T01:45:35;8.65;;;6.07;;
20093;SDS011;10206;48.012;10.030;2023-07-13T01:48:01;10.27;;;6.22;;
20093;SDS011;10206;48.012;10.030;2023-07-13T01:50:27;8.00;;;6.22;;
20093;SDS011;10206;48.012;10.030;2023-07-13T01:52:53;8.38;;;6.20;;
20093;SDS011;10206;48.012;10.030;2023-07-13T01:55:20;8.32;;;6.47;;
20093;SDS011;10206;48.012;10.030;2023-07-13T01:57:47;7.43;;;6.53;;
20093;SDS011;10206;48.012;10.030;2023-07-13T02:00:14;9.88;;;6.57;;
20093;SDS011;10206;48.012;10.030;2023-07-13T02:02:40;8.50;;;6.03;;
20093;SDS011;10206;48.012;10.030;2023-07-13T02:05:07;8.18;;;6.85;;
20093;SDS011;10206;48.012;10.030;2023-07-13T02:07:33;9.43;;;6.05;;
20093;SDS011;10206;48.012;10.030;2023-07-13T02:09:59;8.68;;;6.80;;
20093;SDS011;10206;48.012;10.030;2023-07-13T02:12:25;8.98;;;6.18;;
20093;SDS011;10206;48.012;10.030;2023-07-13T02:14:51;8.95;;;6.28;;
20093;SDS011;10206;48.012;10.030;2023-07-13T02:17:18;9.80;;;6.60;;
20093;SDS011;10206;48.012;10.030;2023-07-13T02:19:44;10.45;;;6.43;;
20093;SDS011;10206;48.012;10.030;2023-07-13T02:22:10;7.53;;;6.35;;
20093;SDS011;10206;48.012;10.030;2023-07-13T02:24:36;10.77;;;6.78;;
20093;SDS011;10206;48.012;10.030;2023-07-13T02:27:03;7.30;;;6.32;;
20093;SDS011;10206;48.012;10.030;2023-07-13T02:29:29;7.60;;;5.95;;
20093;SDS011;10206;48.012;10.030;2023-07-13T02:31:56;9.65;;;5.75;;
20093;SDS011;10206;48.012;10.030;2023-07-13T02:34:22;7.90;;;6.63;;
20093;SDS011;10206;48.012;10.030;2023-07-13T02:36:48;10.40;;;6.53;;
20093;SDS011;10206;48.012;10.030;2023-07-13T02:39:14;9.48;;;6.40;;
20093;SDS011;10206;48.012;10.030;2023-07-13T02:41:40;8.90;;;6.13;;
20093;SDS011;10206;48.012;10.030;2023-07-13T02:44:06;8.88;;;6.07;;
20093;SDS011;10206;48.012;10.030;2023-07-13T02:46:33;6.53;;;5.93;;
20093;SDS011;10206;48.012;10.030;2023-07-13T02:49:01;10.52;;;6.47;;
20093;SDS011;10206;48.012;10.030;2023-07-13T02:51:27;8.93;;;6.30;;
20093;SDS011;10206;48.012;10.030;2023-07-13T02:53:54;8.43;;;6.10;;
20093;SDS011;10206;48.012;10.030;2023-07-13T02:56:22;8.70;;;6.80;;
20093;SDS011;10206;48.012;10.030;2023-07-13T02:58:51;10.48;;;6.35;;
20093;SDS011;10206;48.012;10.030;2023-07-13T03:01:17;11.00;;;6.63;;
20093;SDS011;10206;48.012;10.030;2023-07-13T03:03:47;12.55;;;6.80;;
20093;SDS011;10206;48.012;10.030;2023-07-13T03:06:14;10.80;;;7.45;;
20093;SDS011;10206;48.012;10.030;2023-07-13T03:08:41;9.95;;;7.05;;
20093;SDS011;10206;48.012;10.030;2023-07-13T03:11:08;13.05;;;7.82;;
20093;SDS011;10206;48.012;10.030;2023-07-13T03:13:39;12.40;;;7.38;;
20093;SDS011;10206;48.012;10.030;2023-07-13T03:16:06;10.25;;;6.57;;
20093;SDS011;10206;48.012;10.030;2023-07-13T03:18:33;11.95;;;7.25;;
20093;SDS011;10206;48.012;10.030;2023-07-13T03:21:00;12.70;;;7.30;;
20093;SDS011;10206;48.012;10.030;2023-07-13T03:23:26;8.55;;;6.85;;
20093;SDS011;10206;48.012;10.030;2023-07-13T03:26:03;12.35;;;7.40;;
20093;SDS011;10206;48.012;10.030;2023-07-13T03:28:33;11.40;;;7.75;;
20093;SDS011;10206;48.012;10.030;2023-07-13T03:31:00;8.98;;;7.38;;
20093;SDS011;10206;48.012;10.030;2023-07-13T03:33:28;12.05;;;7.90;;
20093;SDS011;10206;48.012;10.030;2023-07-13T03:35:55;9.82;;;7.30;;
20093;SDS011;10206;48.012;10.030;2023-07-13T03:38:21;14.38;;;7.70;;
20093;SDS011;10206;48.012;10.030;2023-07-13T03:40:47;10.75;;;7.57;;
20093;SDS011;10206;48.012;10.030;2023-07-13T03:43:14;12.40;;;7.25;;
20093;SDS011;10206;48.012;10.030;2023-07-13T03:45:40;9.55;;;7.18;;
20093;SDS011;10206;48.012;10.030;2023-07-13T03:48:06;12.55;;;7.80;;
20093;SDS011;10206;48.012;10.030;2023-07-13T03:50:32;10.52;;;8.15;;
20093;SDS011;10206;48.012;10.030;2023-07-13T03:52:59;10.35;;;7.70;;
20093;SDS011;10206;48.012;10.030;2023-07-13T03:55:25;13.18;;;7.93;;
20093;SDS011;10206;48.012;10.030;2023-07-13T03:57:58;13.82;;;7.53;;
20093;SDS011;10206;48.012;10.030;2023-07-13T04:00:44;11.82;;;8.02;;
20093;SDS011;10206;48.012;10.030;2023-07-13T04:03:10;9.55;;;7.55;;
20093;SDS011;10206;48.012;10.030;2023-07-13T04:05:36;9.90;;;7.38;;
20093;SDS011;10206;48.012;10.030;2023-07-13T04:08:05;12.73;;;8.23;;
20093;SDS011;10206;48.012;10.030;2023-07-13T04:10:31;13.90;;;7.53;;
20093;SDS011;10206;48.012;10.030;2023-07-13T04:12:57;10.52;;;7.75;;
20093;SDS011;10206;48.012;10.030;2023-07-13T04:15:23;11.57;;;8.23;;
20093;SDS011;10206;48.012;10.030;2023-07-13T04:17:49;13.05;;;8.02;;
20093;SDS011;10206;48.012;10.030;2023-07-13T04:20:15;10.07;;;7.90;;
20093;SDS011;10206;48.012;10.030;2023-07-13T04:22:42;40.40;;;33.85;;
20093;SDS011;10206;48.012;10.030;2023-07-13T04:25:08;16.00;;;11.88;;
20093;SDS011;10206;48.012;10.030;2023-07-13T04:27:34;11.75;;;8.25;;
20093;SDS011;10206;48.012;10.030;2023-07-13T04:30:00;12.75;;;8.40;;
20093;SDS011;10206;48.012;10.030;2023-07-13T04:32:26;10.57;;;8.10;;
20093;SDS011;10206;48.012;10.030;2023-07-13T04:34:52;9.93;;;7.90;;
20093;SDS011;10206;48.012;10.030;2023-07-13T04:37:20;11.40;;;8.57;;
20093;SDS011;10206;48.012;10.030;2023-07-13T04:39:46;10.85;;;8.10;;
20093;SDS011;10206;48.012;10.030;2023-07-13T04:42:13;10.10;;;7.80;;
20093;SDS011;10206;48.012;10.030;2023-07-13T04:44:39;8.52;;;7.30;;
20093;SDS011;10206;48.012;10.030;2023-07-13T04:47:05;9.45;;;7.05;;
20093;SDS011;10206;48.012;10.030;2023-07-13T04:49:31;11.82;;;7.03;;
20093;SDS011;10206;48.012;10.030;2023-07-13T04:51:57;10.13;;;7.32;;
20093;SDS011;10206;48.012;10.030;2023-07-13T04:54:23;10.20;;;7.32;;
20093;SDS011;10206;48.012;10.030;2023-07-13T04:56:49;9.57;;;6.40;;
20093;SDS011;10206;48.012;10.030;2023-07-13T04:59:15;12.88;;;6.10;;
20093;SDS011;10206;48.012;10.030;2023-07-13T05:01:42;8.80;;;5.60;;
20093;SDS011;10206;48.012;10.030;2023-07-13T05:04:08;8.57;;;6.22;;
20093;SDS011;10206;48.012;10.030;2023-07-13T05:06:34;8.77;;;6.18;;
20093;SDS011;10206;48.012;10.030;2023-07-13T05:09:00;7.95;;;5.85;;
20093;SDS011;10206;48.012;10.030;2023-07-13T05:11:26;11.02;;;7.47;;
20093;SDS011;10206;48.012;10.030;2023-07-13T05:13:52;12.18;;;6.78;;
20093;SDS011;10206;48.012;10.030;2023-07-13T05:16:19;13.15;;;6.60;;
20093;SDS011;10206;48.012;10.030;2023-07-13T05:18:45;9.35;;;5.72;;
20093;SDS011;10206;48.012;10.030;2023-07-13T05:21:11;9.55;;;4.90;;
20093;SDS011;10206;48.012;10.030;2023-07-13T05:23:37;7.72;;;4.85;;
20093;SDS011;10206;48.012;10.030;2023-07-13T05:26:03;7.00;;;4.72;;
20093;SDS011;10206;48.012;10.030;2023-07-13T05:28:30;6.50;;;4.40;;
20093;SDS011;10206;48.012;10.030;2023-07-13T05:30:56;9.18;;;5.30;;
20093;SDS011;10206;48.012;10.030;2023-07-13T05:33:23;8.85;;;5.13;;
20093;SDS011;10206;48.012;10.030;2023-07-13T05:35:50;5.47;;;4.82;;
20093;SDS011;10206;48.012;10.030;2023-07-13T05:38:16;9.40;;;5.68;;
20093;SDS011;10206;48.012;10.030;2023-07-13T05:40:43;7.32;;;4.35;;
20093;SDS011;10206;48.012;10.030;2023-07-13T05:43:09;5.28;;;4.35;;
20093;SDS011;10206;48.012;10.030;2023-07-13T05:45:36;6.32;;;4.25;;
20093;SDS011;10206;48.012;10.030;2023-07-13T05:48:02;5.20;;;4.10;;
20093;SDS011;10206;48.012;10.030;2023-07-13T05:50:28;6.68;;;4.65;;
20093;SDS011;10206;48.012;10.030;2023-07-13T05:52:55;6.15;;;4.38;;
20093;SDS011;10206;48.012;10.030;2023-07-13T05:55:21;6.10;;;4.55;;
20093;SDS011;10206;48.012;10.030;2023-07-13T05:57:47;6.25;;;4.85;;
20093;SDS011;10206;48.012;10.030;2023-07-13T06:00:14;9.05;;;4.68;;
20093;SDS011;10206;48.012;10.030;2023-07-13T06:02:41;5.90;;;5.00;;
20093;SDS011;10206;48.012;10.030;2023-07-13T06:05:07;6.75;;;4.82;;
20093;SDS011;10206;48.012;10.030;2023-07-13T06:07:34;5.60;;;4.45;;
20093;SDS011;10206;48.012;10.030;2023-07-13T06:10:00;7.97;;;4.50;;
20093;SDS011;10206;48.012;10.030;2023-07-13T06:12:26;5.38;;;3.85;;
20093;SDS011;10206;48.012;10.030;2023-07-13T06:14:52;7.32;;;4.13;;
20093;SDS011;10206;48.012;10.030;2023-07-13T06:17:18;10.98;;;4.25;;
20093;SDS011;10206;48.012;10.030;2023-07-13T06:19:44;6.60;;;4.03;;
20093;SDS011;10206;48.012;10.030;2023-07-13T06:22:10;7.35;;;3.85;;
20093;SDS011;10206;48.012;10.030;2023-07-13T06:24:36;4.82;;;3.58;;
20093;SDS011;10206;48.012;10.030;2023-07-13T06:27:03;6.75;;;3.55;;
20093;SDS011;10206;48.012;10.030;2023-07-13T06:29:29;4.63;;;3.03;;
20093;SDS011;10206;48.012;10.030;2023-07-13T06:31:56;6.10;;;2.97;;
20093;SDS011;10206;48.012;10.030;2023-07-13T06:34:22;5.32;;;3.67;;
20093;SDS011;10206;48.012;10.030;2023-07-13T06:36:48;5.93;;;3.58;;
20093;SDS011;10206;48.012;10.030;2023-07-13T06:39:14;7.28;;;3.38;;
20093;SDS011;10206;48.012;10.030;2023-07-13T06:41:41;4.63;;;3.10;;
20093;SDS011;10206;48.012;10.030;2023-07-13T06:44:07;5.78;;;2.80;;
20093;SDS011;10206;48.012;10.030;2023-07-13T06:46:33;5.05;;;2.45;;
20093;SDS011;10206;48.012;10.030;2023-07-13T06:48:59;6.05;;;2.30;;
20093;SDS011;10206;48.012;10.030;2023-07-13T06:51:25;5.32;;;2.72;;
20093;SDS011;10206;48.012;10.030;2023-07-13T06:53:51;5.53;;;2.88;;
20093;SDS011;10206;48.012;10.030;2023-07-13T06:56:18;5.22;;;2.30;;
20093;SDS011;10206;48.012;10.030;2023-07-13T06:58:44;5.43;;;2.90;;
20093;SDS011;10206;48.012;10.030;2023-07-13T07:01:10;6.43;;;2.58;;
20093;SDS011;10206;48.012;10.030;2023-07-13T07:03:36;5.07;;;3.05;;
20093;SDS011;10206;48.012;10.030;2023-07-13T07:08:40;5.35;;;2.95;;
20093;SDS011;10206;48.012;10.030;2023-07-13T07:11:08;5.00;;;2.78;;
20093;SDS011;10206;48.012;10.030;2023-07-13T07:13:37;4.47;;;3.28;;
20093;SDS011;10206;48.012;10.030;2023-07-13T07:16:03;4.70;;;3.00;;
20093;SDS011;10206;48.012;10.030;2023-07-13T07:18:29;5.88;;;3.00;;
20093;SDS011;10206;48.012;10.030;2023-07-13T07:20:55;6.90;;;3.05;;
20093;SDS011;10206;48.012;10.030;2023-07-13T07:23:22;4.03;;;2.90;;
20093;SDS011;10206;48.012;10.030;2023-07-13T07:25:48;4.65;;;3.55;;
20093;SDS011;10206;48.012;10.030;2023-07-13T07:28:14;4.25;;;3.10;;
20093;SDS011;10206;48.012;10.030;2023-07-13T07:30:44;5.47;;;3.10;;
20093;SDS011;10206;48.012;10.030;2023-07-13T07:33:11;6.55;;;3.30;;
20093;SDS011;10206;48.012;10.030;2023-07-13T07:35:38;4.82;;;3.03;;
20093;SDS011;10206;48.012;10.030;2023-07-13T07:38:04;4.65;;;2.95;;
20093;SDS011;10206;48.012;10.030;2023-07-13T07:40:31;6.65;;;3.10;;
20093;SDS011;10206;48.012;10.030;2023-07-13T07:42:57;3.63;;;2.75;;
20093;SDS011;10206;48.012;10.030;2023-07-13T07:45:23;8.00;;;3.28;;
20093;SDS011;10206;48.012;10.030;2023-07-13T07:47:51;6.47;;;3.50;;
20093;SDS011;10206;48.012;10.030;2023-07-13T07:50:19;5.88;;;3.58;;
20093;SDS011;10206;48.012;10.030;2023-07-13T07:52:45;6.05;;;3.40;;
20093;SDS011;10206;48.012;10.030;2023-07-13T07:55:11;7.13;;;3.20;;
20093;SDS011;10206;48.012;10.030;2023-07-13T07:57:37;5.13;;;3.00;;
20093;SDS011;10206;48.012;10.030;2023-07-13T08:00:04;7.22;;;3.05;;
20093;SDS011;10206;48.012;10.030;2023-07-13T08:02:30;4.22;;;3.22;;
20093;SDS011;10206;48.012;10.030;2023-07-13T08:04:56;4.00;;;3.05;;
20093;SDS011;10206;48.012;10.030;2023-07-13T08:07:23;4.85;;;3.40;;
20093;SDS011;10206;48.012;10.030;2023-07-13T08:09:51;5.93;;;2.95;;
20093;SDS011;10206;48.012;10.030;2023-07-13T08:12:18;4.18;;;3.20;;
20093;SDS011;10206;48.012;10.030;2023-07-13T08:14:44;4.00;;;2.53;;
20093;SDS011;10206;48.012;10.030;2023-07-13T08:17:14;3.38;;;2.53;;
20093;SDS011;10206;48.012;10.030;2023-07-13T08:19:40;4.30;;;2.28;;
20093;SDS011;10206;48.012;10.030;2023-07-13T08:22:06;4.25;;;2.40;;
20093;SDS011;10206;48.012;10.030;2023-07-13T08:24:32;5.38;;;2.30;;
20093;SDS011;10206;48.012;10.030;2023-07-13T08:26:58;5.90;;;2.30;;
20093;SDS011;10206;48.012;10.030;2023-07-13T08:29:24;3.42;;;2.30;;
20093;SDS011;10206;48.012;10.030;2023-07-13T08:31:51;8.57;;;2.53;;
20093;SDS011;10206;48.012;10.030;2023-07-13T08:34:17;7.45;;;2.92;;
20093;SDS011;10206;48.012;10.030;2023-07-13T08:36:43;6.50;;;2.35;;
20093;SDS011;10206;48.012;10.030;2023-07-13T08:39:09;6.13;;;2.88;;
20093;SDS011;10206;48.012;10.030;2023-07-13T08:41:35;3.15;;;2.70;;
20093;SDS011;10206;48.012;10.030;2023-07-13T08:44:01;4.05;;;2.75;;
20093;SDS011;10206;48.012;10.030;2023-07-13T08:46:35;3.92;;;3.00;;
20093;SDS011;10206;48.012;10.030;2023-07-13T08:49:05;4.53;;;2.63;;
20093;SDS011;10206;48.012;10.030;2023-07-13T08:51:43;4.57;;;2.72;;
20093;SDS011;10206;48.012;10.030;2023-07-13T08:54:21;5.68;;;2.40;;
20093;SDS011;10206;48.012;10.030;2023-07-13T08:57:09;3.83;;;2.28;;
20093;SDS011;10206;48.012;10.030;2023-07-13T08:59:39;4.18;;;2.50;;
20093;SDS011;10206;48.012;10.030;2023-07-13T09:04:50;5.30;;;2.60;;
20093;SDS011;10206;48.012;10.030;2023-07-13T09:07:41;5.47;;;2.25;;
20093;SDS011;10206;48.012;10.030;2023-07-13T09:10:19;6.60;;;2.38;;
20093;SDS011;10206;48.012;10.030;2023-07-13T09:15:34;5.43;;;2.58;;
20093;SDS011;10206;48.012;10.030;2023-07-13T09:18:11;5.47;;;2.38;;
20093;SDS011;10206;48.012;10.030;2023-07-13T09:21:11;3.03;;;2.40;;
20093;SDS011;10206;48.012;10.030;2023-07-13T09:27:01;2.63;;;2.42;;
20093;SDS011;10206;48.012;10.030;2023-07-13T09:29:44;3.28;;;2.45;;
20093;SDS011;10206;48.012;10.030;2023-07-13T09:32:31;4.15;;;2.40;;
20093;SDS011;10206;48.012;10.030;2023-07-13T09:34:58;4.22;;;2.63;;
20093;SDS011;10206;48.012;10.030;2023-07-13T09:37:28;3.20;;;2.70;;
20093;SDS011;10206;48.012;10.030;2023-07-13T09:39:58;7.22;;;2.58;;
20093;SDS011;10206;48.012;10.030;2023-07-13T09:42:29;5.15;;;2.80;;
20093;SDS011;10206;48.012;10.030;2023-07-13T09:44:57;6.43;;;2.88;;
20093;SDS011;10206;48.012;10.030;2023-07-13T09:47:28;3.45;;;2.60;;
20093;SDS011;10206;48.012;10.030;2023-07-13T09:49:56;2.90;;;2.53;;
20093;SDS011;10206;48.012;10.030;2023-07-13T09:52:27;4.95;;;2.45;;
20093;SDS011;10206;48.012;10.030;2023-07-13T09:55:11;4.97;;;2.25;;
20093;SDS011;10206;48.012;10.030;2023-07-13T09:57:50;2.67;;;2.45;;
20093;SDS011;10206;48.012;10.030;2023-07-13T10:00:24;9.90;;;2.40;;
20093;SDS011;10206;48.012;10.030;2023-07-13T10:02:58;6.50;;;2.40;;
20093;SDS011;10206;48.012;10.030;2023-07-13T10:05:26;2.88;;;2.30;;
20093;SDS011;10206;48.012;10.030;2023-07-13T10:07:52;4.43;;;2.60;;
20093;SDS011;10206;48.012;10.030;2023-07-13T10:10:22;5.20;;;2.50;;
20093;SDS011;10206;48.012;10.030;2023-07-13T10:12:49;6.03;;;2.58;;
20093;SDS011;10206;48.012;10.030;2023-07-13T10:15:17;7.80;;;2.75;;
20093;SDS011;10206;48.012;10.030;2023-07-13T10:17:46;5.68;;;2.65;;
20093;SDS011;10206;48.012;10.030;2023-07-13T10:20:13;6.65;;;2.47;;
20093;SDS011;10206;48.012;10.030;2023-07-13T10:22:51;6.45;;;2.92;;
20093;SDS011;10206;48.012;10.030;2023-07-13T10:25:22;4.10;;;2.15;;
20093;SDS011;10206;48.012;10.030;2023-07-13T10:28:01;4.00;;;2.03;;
20093;SDS011;10206;48.012;10.030;2023-07-13T10:30:48;4.40;;;2.10;;
20093;SDS011;10206;48.012;10.030;2023-07-13T10:33:14;4.95;;;2.35;;
20093;SDS011;10206;48.012;10.030;2023-07-13T10:35:42;3.80;;;2.13;;
20093;SDS011;10206;48.012;10.030;2023-07-13T10:38:12;4.95;;;2.15;;
20093;SDS011;10206;48.012;10.030;2023-07-13T10:41:02;3.17;;;2.00;;
20093;SDS011;10206;48.012;10.030;2023-07-13T10:43:33;4.82;;;2.20;;
20093;SDS011;10206;48.012;10.030;2023-07-13T10:46:03;11.13;;;2.20;;
20093;SDS011;10206;48.012;10.030;2023-07-13T10:48:35;6.45;;;1.85;;
20093;SDS011;10206;48.012;10.030;2023-07-13T10:51:04;6.28;;;2.30;;
20093;SDS011;10206;48.012;10.030;2023-07-13T10:53:33;5.20;;;2.08;;
20093;SDS011;10206;48.012;10.030;2023-07-13T10:58:39;2.70;;;2.00;;
20093;SDS011;10206;48.012;10.030;2023-07-13T11:01:10;3.30;;;2.25;;
20093;SDS011;10206;48.012;10.030;2023-07-13T11:08:56;5.28;;;1.95;;
20093;SDS011;10206;48.012;10.030;2023-07-13T11:18:48;4.28;;;1.80;;
20093;SDS011;10206;48.012;10.030;2023-07-13T11:21:27;4.53;;;1.88;;
20093;SDS011;10206;48.012;10.030;2023-07-13T11:24:12;4.95;;;2.03;;
20093;SDS011;10206;48.012;10.030;2023-07-13T11:32:15;7.53;;;2.35;;
20093;SDS011;10206;48.012;10.030;2023-07-13T11:34:48;4.18;;;2.05;;
20093;SDS011;10206;48.012;10.030;2023-07-13T11:37:15;4.15;;;2.42;;
20093;SDS011;10206;48.012;10.030;2023-07-13T11:39:44;5.95;;;1.90;;
20093;SDS011;10206;48.012;10.030;2023-07-13T11:42:13;4.80;;;2.25;;
20093;SDS011;10206;48.012;10.030;2023-07-13T11:44:50;4.88;;;2.10;;
20093;SDS011;10206;48.012;10.030;2023-07-13T11:47:19;4.57;;;2.25;;
20093;SDS011;10206;48.012;10.030;2023-07-13T11:49:51;3.67;;;2.22;;
20093;SDS011;10206;48.012;10.030;2023-07-13T11:52:34;5.78;;;2.40;;
20093;SDS011;10206;48.012;10.030;2023-07-13T11:55:03;3.45;;;2.38;;
20093;SDS011;10206;48.012;10.030;2023-07-13T11:57:40;5.38;;;2.55;;
20093;SDS011;10206;48.012;10.030;2023-07-13T12:00:11;4.30;;;2.53;;
20093;SDS011;10206;48.012;10.030;2023-07-13T12:02:45;5.57;;;2.55;;
20093;SDS011;10206;48.012;10.030;2023-07-13T12:05:18;4.18;;;2.50;;
20093;SDS011;10206;48.012;10.030;2023-07-13T12:07:46;5.57;;;2.70;;
20093;SDS011;10206;48.012;10.030;2023-07-13T12:10:20;6.28;;;2.70;;
20093;SDS011;10206;48.012;10.030;2023-07-13T12:12:55;5.45;;;2.33;;
20093;SDS011;10206;48.012;10.030;2023-07-13T12:15:24;6.07;;;2.70;;
20093;SDS011;10206;48.012;10.030;2023-07-13T12:17:59;4.95;;;2.40;;
20093;SDS011;10206;48.012;10.030;2023-07-13T12:20:27;4.05;;;2.50;;
20093;SDS011;10206;48.012;10.030;2023-07-13T12:23:04;4.35;;;2.47;;
20093;SDS011;10206;48.012;10.030;2023-07-13T12:25:32;7.78;;;2.40;;
20093;SDS011;10206;48.012;10.030;2023-07-13T12:27:58;4.60;;;2.60;;
20093;SDS011;10206;48.012;10.030;2023-07-13T12:30:48;6.10;;;2.40;;
20093;SDS011;10206;48.012;10.030;2023-07-13T12:33:15;4.15;;;2.45;;
20093;SDS011;10206;48.012;10.030;2023-07-13T12:35:48;5.32;;;2.75;;
20093;SDS011;10206;48.012;10.030;2023-07-13T12:38:17;4.88;;;2.30;;
20093;SDS011;10206;48.012;10.030;2023-07-13T12:40:48;4.53;;;2.50;;
20093;SDS011;10206;48.012;10.030;2023-07-13T12:43:16;3.72;;;2.40;;
20093;SDS011;10206;48.012;10.030;2023-07-13T12:48:48;4.07;;;2.30;;
20093;SDS011;10206;48.012;10.030;2023-07-13T12:51:16;4.13;;;2.58;;
20093;SDS011;10206;48.012;10.030;2023-07-13T12:53:49;6.95;;;2.60;;
20093;SDS011;10206;48.012;10.030;2023-07-13T12:56:22;8.88;;;2.17;;
20093;SDS011;10206;48.012;10.030;2023-07-13T12:58:56;7.28;;;2.60;;
20093;SDS011;10206;48.012;10.030;2023-07-13T13:01:32;4.63;;;1.90;;
20093;SDS011;10206;48.012;10.030;2023-07-13T13:04:00;5.78;;;2.40;;
20093;SDS011;10206;48.012;10.030;2023-07-13T13:06:31;3.67;;;2.30;;
20093;SDS011;10206;48.012;10.030;2023-07-13T13:09:00;3.25;;;2.00;;
20093;SDS011;10206;48.012;10.030;2023-07-13T13:11:27;5.00;;;2.75;;
20093;SDS011;10206;48.012;10.030;2023-07-13T13:13:55;10.05;;;2.40;;
20093;SDS011;10206;48.012;10.030;2023-07-13T13:16:22;5.82;;;2.53;;
20093;SDS011;10206;48.012;10.030;2023-07-13T13:18:54;4.75;;;2.10;;
20093;SDS011;10206;48.012;10.030;2023-07-13T13:21:25;4.55;;;2.53;;
20093;SDS011;10206;48.012;10.030;2023-07-13T13:23:52;4.45;;;2.28;;
20093;SDS011;10206;48.012;10.030;2023-07-13T13:26:18;5.20;;;2.35;;
20093;SDS011;10206;48.012;10.030;2023-07-13T13:28:46;7.75;;;2.70;;
20093;SDS011;10206;48.012;10.030;2023-07-13T13:31:13;5.75;;;2.28;;
20093;SDS011;10206;48.012;10.030;2023-07-13T13:33:43;3.10;;;2.20;;
20093;SDS011;10206;48.012;10.030;2023-07-13T13:36:18;3.65;;;2.53;;
20093;SDS011;10206;48.012;10.030;2023-07-13T13:38:46;4.85;;;2.88;;
20093;SDS011;10206;48.012;10.030;2023-07-13T13:41:15;4.43;;;2.70;;
20093;SDS011;10206;48.012;10.030;2023-07-13T13:43:41;5.68;;;2.70;;
20093;SDS011;10206;48.012;10.030;2023-07-13T13:46:13;4.38;;;2.45;;
20093;SDS011;10206;48.012;10.030;2023-07-13T13:48:41;7.03;;;2.83;;
20093;SDS011;10206;48.012;10.030;2023-07-13T13:51:15;4.50;;;2.70;;
20093;SDS011;10206;48.012;10.030;2023-07-13T13:53:41;5.43;;;2.33;;
20093;SDS011;10206;48.012;10.030;2023-07-13T13:56:08;6.38;;;2.53;;
20093;SDS011;10206;48.012;10.030;2023-07-13T13:58:34;3.50;;;2.47;;
20093;SDS011;10206;48.012;10.030;2023-07-13T14:01:00;3.95;;;2.40;;
20093;SDS011;10206;48.012;10.030;2023-07-13T14:03:27;2.78;;;2.13;;
20093;SDS011;10206;48.012;10.030;2023-07-13T14:05:53;4.85;;;2.83;;
20093;SDS011;10206;48.012;10.030;2023-07-13T14:08:22;4.93;;;2.60;;
20093;SDS011;10206;48.012;10.030;2023-07-13T14:10:49;4.43;;;2.47;;
20093;SDS011;10206;48.012;10.030;2023-07-13T14:13:21;3.78;;;2.30;;
20093;SDS011;10206;48.012;10.030;2023-07-13T14:15:53;5.05;;;2.88;;
20093;SDS011;10206;48.012;10.030;2023-07-13T14:18:19;6.47;;;2.72;;
20093;SDS011;10206;48.012;10.030;2023-07-13T14:20:46;3.55;;;2.67;;
20093;SDS011;10206;48.012;10.030;2023-07-13T14:23:14;3.42;;;2.58;;
20093;SDS011;10206;48.012;10.030;2023-07-13T14:25:41;6.00;;;2.38;;
20093;SDS011;10206;48.012;10.030;2023-07-13T14:28:24;3.58;;;2.50;;
20093;SDS011;10206;48.012;10.030;2023-07-13T14:30:52;4.82;;;2.80;;
20093;SDS011;10206;48.012;10.030;2023-07-13T14:33:19;3.45;;;2.78;;
20093;SDS011;10206;48.012;10.030;2023-07-13T14:35:45;5.38;;;2.83;;
20093;SDS011;10206;48.012;10.030;2023-07-13T14:38:13;3.63;;;2.47;;
20093;SDS011;10206;48.012;10.030;2023-07-13T14:40:42;3.28;;;2.60;;
20093;SDS011;10206;48.012;10.030;2023-07-13T14:43:15;5.03;;;2.97;;
20093;SDS011;10206;48.012;10.030;2023-07-13T14:45:46;2.75;;;2.53;;
20093;SDS011;10206;48.012;10.030;2023-07-13T14:48:19;4.05;;;2.55;;
20093;SDS011;10206;48.012;10.030;2023-07-13T14:50:51;5.43;;;2.78;;
20093;SDS011;10206;48.012;10.030;2023-07-13T14:53:21;3.72;;;2.50;;
20093;SDS011;10206;48.012;10.030;2023-07-13T14:55:47;3.88;;;2.83;;
20093;SDS011;10206;48.012;10.030;2023-07-13T14:58:13;6.80;;;2.90;;
20093;SDS011;10206;48.012;10.030;2023-07-13T15:00:39;3.08;;;2.15;;
20093;SDS011;10206;48.012;10.030;2023-07-13T15:03:09;3.33;;;2.42;;
20093;SDS011;10206;48.012;10.030;2023-07-13T15:05:46;3.53;;;2.80;;
20093;SDS011;10206;48.012;10.030;2023-07-13T15:08:13;7.15;;;2.63;;
20093;SDS011;10206;48.012;10.030;2023-07-13T15:10:41;3.83;;;2.38;;
20093;SDS011;10206;48.012;10.030;2023-07-13T15:13:14;4.40;;;2.47;;
20093;SDS011;10206;48.012;10.030;2023-07-13T15:15:45;3.17;;;2.58;;
20093;SDS011;10206;48.012;10.030;2023-07-13T15:18:15;3.65;;;2.35;;